Airport View

Enter AWOS ICAO identifier for current METAR.

ex. KFNL

KPCZ 300430Z AUTO 00000KT 10SM OVC042 01/M05 A3013 RMK AO2 T00101052

30 Oct 2020 04:32

Frequency: 118.625

Phone: 920-867-2407

Other Area AWOS: KCLI - KY50 - KATW - KSTE

TAF KATW 292330Z 3000/3024 01007KT P6SM OVC040 FM300400 35004KT P6SM SCT035 BKN050 FM301200 32004KT P6SM SCT030 SCT150 FM301800 27003KT P6SM SKC